createdAt,value
2023-01-02T00:00:15.811Z,10.65
2023-01-02T00:01:11.494Z,10.63
2023-01-02T00:02:10.225Z,10.62
2023-01-02T00:03:11.300Z,10.62
2023-01-02T00:04:10.489Z,10.60
2023-01-02T00:05:10.189Z,10.60
2023-01-02T00:06:10.108Z,10.59
2023-01-02T00:07:10.419Z,10.60
2023-01-02T00:08:10.199Z,10.58
2023-01-02T00:09:10.131Z,10.58
2023-01-02T00:10:10.056Z,10.56
2023-01-02T00:11:10.068Z,10.58
2023-01-02T00:12:10.047Z,10.55
2023-01-02T00:13:10.032Z,10.53
2023-01-02T00:14:11.013Z,10.56
2023-01-02T00:15:10.033Z,10.55
2023-01-02T00:16:10.042Z,10.55
2023-01-02T00:17:09.983Z,10.53
2023-01-02T00:18:10.170Z,10.53
2023-01-02T00:19:10.033Z,10.55
2023-01-02T00:20:09.985Z,10.55
2023-01-02T00:21:10.030Z,10.55
2023-01-02T00:22:09.931Z,10.55
2023-01-02T00:23:09.902Z,10.53
2023-01-02T00:24:10.992Z,10.55
2023-01-02T00:25:10.033Z,10.56
2023-01-02T00:26:10.851Z,10.56
2023-01-02T00:27:09.843Z,10.56
2023-01-02T00:28:09.862Z,10.55
2023-01-02T00:29:11.025Z,10.53
2023-01-02T00:30:09.849Z,10.53
2023-01-02T00:31:10.078Z,10.53
2023-01-02T00:32:09.786Z,10.53
2023-01-02T00:33:09.817Z,10.53
2023-01-02T00:34:10.554Z,10.55
2023-01-02T00:35:09.778Z,10.55
2023-01-02T00:36:09.726Z,10.56
2023-01-02T00:37:09.786Z,10.58
2023-01-02T00:38:09.740Z,10.58
2023-01-02T00:39:09.731Z,10.56
2023-01-02T00:40:09.681Z,10.56
2023-01-02T00:41:09.905Z,10.58
2023-01-02T00:42:09.698Z,10.58
2023-01-02T00:43:10.724Z,10.58
2023-01-02T00:44:10.588Z,10.59
2023-01-02T00:45:09.633Z,10.60
2023-01-02T00:46:12.220Z,10.60
2023-01-02T00:47:09.654Z,10.60
2023-01-02T00:48:09.565Z,10.59
2023-01-02T00:49:09.565Z,10.60
2023-01-02T00:50:09.571Z,10.60
2023-01-02T00:51:09.543Z,10.59
2023-01-02T00:52:10.353Z,10.59
2023-01-02T00:53:09.540Z,10.60
2023-01-02T00:54:09.542Z,10.59
2023-01-02T00:55:10.584Z,10.58
2023-01-02T00:56:09.519Z,10.59
2023-01-02T00:57:09.558Z,10.59
2023-01-02T00:58:10.297Z,10.59
2023-01-02T00:59:09.455Z,10.60
2023-01-02T01:00:09.418Z,10.59
2023-01-02T01:01:09.425Z,10.62
2023-01-02T01:02:09.498Z,10.60
2023-01-02T01:03:10.358Z,10.62
2023-01-02T01:04:09.450Z,10.63
2023-01-02T01:05:09.362Z,10.63
2023-01-02T01:06:09.375Z,10.63
2023-01-02T01:07:09.453Z,10.65
2023-01-02T01:08:09.510Z,10.66
2023-01-02T01:09:09.584Z,10.66
2023-01-02T01:10:10.167Z,10.65
2023-01-02T01:11:09.335Z,10.65
2023-01-02T01:12:09.322Z,10.65
2023-01-02T01:13:09.342Z,10.66
2023-01-02T01:14:10.189Z,10.65
2023-01-02T01:15:09.216Z,10.65
2023-01-02T01:16:09.441Z,10.63
2023-01-02T01:17:09.999Z,10.62
2023-01-02T01:18:09.205Z,10.63
2023-01-02T01:19:09.162Z,10.62
2023-01-02T01:20:10.234Z,10.62
2023-01-02T01:21:09.378Z,10.63
2023-01-02T01:22:09.123Z,10.62
2023-01-02T01:23:09.177Z,10.62
2023-01-02T01:24:10.383Z,10.62
2023-01-02T01:25:09.126Z,10.63
2023-01-02T01:26:09.077Z,10.62
2023-01-02T01:27:09.057Z,10.62
2023-01-02T01:28:09.336Z,10.62
2023-01-02T01:29:09.097Z,10.60
2023-01-02T01:30:09.177Z,10.59
2023-01-02T01:31:09.113Z,10.58
2023-01-02T01:32:09.011Z,10.56
2023-01-02T01:33:09.220Z,10.55
2023-01-02T01:34:09.047Z,10.55
2023-01-02T01:35:08.964Z,10.52
2023-01-02T01:36:08.940Z,10.47
2023-01-02T01:37:08.976Z,10.51
2023-01-02T01:38:08.944Z,10.46
2023-01-02T01:39:08.951Z,10.46
2023-01-02T01:40:08.927Z,10.46
2023-01-02T01:41:08.871Z,10.44
2023-01-02T01:42:08.877Z,10.43
2023-01-02T01:43:08.888Z,10.43
2023-01-02T01:44:08.929Z,10.43
2023-01-02T01:45:09.360Z,10.43
2023-01-02T01:46:09.139Z,10.43
2023-01-02T01:47:09.679Z,10.43
2023-01-02T01:48:08.784Z,10.44
2023-01-02T01:49:08.789Z,10.42
2023-01-02T01:50:09.100Z,10.40
2023-01-02T01:51:08.750Z,10.40
2023-01-02T01:52:08.740Z,10.39
2023-01-02T01:53:08.739Z,10.37
2023-01-02T01:54:09.530Z,10.36
2023-01-02T01:55:09.935Z,10.32
2023-01-02T01:56:08.821Z,10.33
2023-01-02T01:57:08.684Z,10.28
2023-01-02T01:58:08.695Z,10.28
2023-01-02T01:59:08.691Z,10.26
2023-01-02T02:00:09.467Z,10.26
2023-01-02T02:01:09.628Z,10.25
2023-01-02T02:02:08.813Z,10.26
2023-01-02T02:03:08.740Z,10.25
2023-01-02T02:04:08.685Z,10.24
2023-01-02T02:05:08.563Z,10.24
2023-01-02T02:06:08.564Z,10.24
2023-01-02T02:07:08.584Z,10.24
2023-01-02T02:08:08.558Z,10.24
2023-01-02T02:09:08.543Z,10.25
2023-01-02T02:10:08.633Z,10.25
2023-01-02T02:11:08.641Z,10.26
2023-01-02T02:12:09.323Z,10.28
2023-01-02T02:13:08.472Z,10.26
2023-01-02T02:14:08.479Z,10.28
2023-01-02T02:15:09.557Z,10.25
2023-01-02T02:16:08.516Z,10.26
2023-01-02T02:17:08.423Z,10.26
2023-01-02T02:18:08.383Z,10.28
2023-01-02T02:19:08.378Z,10.25
2023-01-02T02:20:08.371Z,10.26
2023-01-02T02:21:08.640Z,10.24
2023-01-02T02:22:08.356Z,10.22
2023-01-02T02:23:08.425Z,10.22
2023-01-02T02:24:08.369Z,10.21
2023-01-02T02:25:09.108Z,10.24
2023-01-02T02:26:08.318Z,10.26
2023-01-02T02:27:08.284Z,10.30
2023-01-02T02:28:09.325Z,10.33
2023-01-02T02:29:08.328Z,10.34
2023-01-02T02:30:08.270Z,10.39
2023-01-02T02:31:08.208Z,10.40
2023-01-02T02:32:08.297Z,10.44
2023-01-02T02:33:09.369Z,10.47
2023-01-02T02:34:09.138Z,10.53
2023-01-02T02:35:08.255Z,10.59
2023-01-02T02:36:08.184Z,10.62
2023-01-02T02:37:08.190Z,10.68
2023-01-02T02:38:08.190Z,10.74
2023-01-02T02:39:08.211Z,10.76
2023-01-02T02:40:08.630Z,10.76
2023-01-02T02:41:08.100Z,10.78
2023-01-02T02:42:08.122Z,10.83
2023-01-02T02:43:08.058Z,10.88
2023-01-02T02:44:08.878Z,10.91
2023-01-02T02:45:09.374Z,10.94
2023-01-02T02:46:08.633Z,10.95
2023-01-02T02:47:08.032Z,10.99
2023-01-02T02:48:08.055Z,11.01
2023-01-02T02:49:08.880Z,11.03
2023-01-02T02:50:08.210Z,11.11
2023-01-02T02:51:07.977Z,11.17
2023-01-02T02:52:07.937Z,11.20
2023-01-02T02:53:07.962Z,11.25
2023-01-02T02:54:08.891Z,11.28
2023-01-02T02:55:08.045Z,11.28
2023-01-02T02:56:07.896Z,11.28
2023-01-02T02:57:07.880Z,11.32
2023-01-02T02:58:07.887Z,11.38
2023-01-02T02:59:07.897Z,11.47
2023-01-02T03:00:07.919Z,11.53
2023-01-02T03:01:08.784Z,11.62
2023-01-02T03:02:09.034Z,11.67
2023-01-02T03:03:08.009Z,11.71
2023-01-02T03:04:07.831Z,11.72
2023-01-02T03:05:07.815Z,11.72
2023-01-02T03:06:07.943Z,11.77
2023-01-02T03:07:08.494Z,11.78
2023-01-02T03:08:07.726Z,11.78
2023-01-02T03:09:07.719Z,11.77
2023-01-02T03:10:07.770Z,11.77
2023-01-02T03:11:08.027Z,11.74
2023-01-02T03:12:07.709Z,11.71
2023-01-02T03:13:07.699Z,11.71
2023-01-02T03:14:07.676Z,11.71
2023-01-02T03:15:07.738Z,11.75
2023-01-02T03:16:08.019Z,11.75
2023-01-02T03:17:07.630Z,11.75
2023-01-02T03:18:07.849Z,11.78
2023-01-02T03:19:08.539Z,11.78
2023-01-02T03:20:07.627Z,11.83
2023-01-02T03:21:07.655Z,11.85
2023-01-02T03:22:07.575Z,11.86
2023-01-02T03:23:07.540Z,11.86
2023-01-02T03:24:08.564Z,11.86
2023-01-02T03:25:07.536Z,11.89
2023-01-02T03:26:07.536Z,11.90
2023-01-02T03:27:07.681Z,11.86
2023-01-02T03:28:07.636Z,11.90
2023-01-02T03:29:07.974Z,11.96
2023-01-02T03:30:07.498Z,11.97
2023-01-02T03:31:07.500Z,11.94
2023-01-02T03:32:07.465Z,11.94
2023-01-02T03:33:07.417Z,11.97
2023-01-02T03:34:07.404Z,12.02
2023-01-02T03:35:07.385Z,12.02
2023-01-02T03:36:07.538Z,12.01
2023-01-02T03:37:07.393Z,11.99
2023-01-02T03:38:07.378Z,11.97
2023-01-02T03:39:08.153Z,12.04
2023-01-02T03:40:08.567Z,12.06
2023-01-02T03:41:07.303Z,12.09
2023-01-02T03:42:07.800Z,12.06
2023-01-02T03:43:07.301Z,12.08
2023-01-02T03:44:08.177Z,12.08
2023-01-02T03:45:07.285Z,12.08
2023-01-02T03:46:07.465Z,12.08
2023-01-02T03:47:07.261Z,12.09
2023-01-02T03:48:07.224Z,12.11
2023-01-02T03:49:07.225Z,12.15
2023-01-02T03:50:07.219Z,12.19
2023-01-02T03:51:07.285Z,12.16
2023-01-02T03:52:07.383Z,12.16
2023-01-02T03:53:07.300Z,12.20
2023-01-02T03:54:08.256Z,12.26
2023-01-02T03:55:07.134Z,12.27
2023-01-02T03:56:07.137Z,12.30
2023-01-02T03:57:07.132Z,12.33
2023-01-02T03:58:07.600Z,12.38
2023-01-02T03:59:07.081Z,12.42
2023-01-02T04:00:07.069Z,12.42
2023-01-02T04:01:07.095Z,12.42
2023-01-02T04:02:08.073Z,12.41
2023-01-02T04:03:07.127Z,12.39
2023-01-02T04:04:07.840Z,12.45
2023-01-02T04:05:07.983Z,12.46
2023-01-02T04:06:06.979Z,12.52
2023-01-02T04:07:08.020Z,12.59
2023-01-02T04:08:07.003Z,12.56
2023-01-02T04:09:06.952Z,12.56
2023-01-02T04:10:06.957Z,12.54
2023-01-02T04:11:06.987Z,12.54
2023-01-02T04:12:06.933Z,12.54
2023-01-02T04:13:06.871Z,12.52
2023-01-02T04:14:07.240Z,12.54
2023-01-02T04:15:06.893Z,12.54
2023-01-02T04:16:06.869Z,12.56
2023-01-02T04:17:06.865Z,12.57
2023-01-02T04:18:07.982Z,12.60
2023-01-02T04:19:06.844Z,12.59
2023-01-02T04:20:07.830Z,12.62
2023-01-02T04:21:06.823Z,12.59
2023-01-02T04:22:06.806Z,12.56
2023-01-02T04:23:06.762Z,12.52
2023-01-02T04:24:06.857Z,12.56
2023-01-02T04:25:07.846Z,12.54
2023-01-02T04:26:06.699Z,12.51
2023-01-02T04:27:06.743Z,12.54
2023-01-02T04:28:06.834Z,12.49
2023-01-02T04:29:07.195Z,12.48
2023-01-02T04:30:07.867Z,12.48
2023-01-02T04:31:07.815Z,12.49
2023-01-02T04:32:06.938Z,12.51
2023-01-02T04:33:07.571Z,12.54
2023-01-02T04:34:07.479Z,12.54
2023-01-02T04:35:07.006Z,12.54
2023-01-02T04:36:07.537Z,12.52
2023-01-02T04:37:06.678Z,12.51
2023-01-02T04:38:06.585Z,12.48
2023-01-02T04:39:06.557Z,12.49
2023-01-02T04:40:06.559Z,12.49
2023-01-02T04:41:06.546Z,12.51
2023-01-02T04:42:06.532Z,12.54
2023-01-02T04:43:06.530Z,12.52
2023-01-02T04:44:07.030Z,12.60
2023-01-02T04:45:07.443Z,12.66
2023-01-02T04:46:06.512Z,12.66
2023-01-02T04:47:06.441Z,12.66
2023-01-02T04:48:06.453Z,12.64
2023-01-02T04:49:06.450Z,12.63
2023-01-02T04:50:07.278Z,12.66
2023-01-02T04:51:06.382Z,12.69
2023-01-02T04:52:06.420Z,12.74
2023-01-02T04:53:06.407Z,12.71
2023-01-02T04:54:07.625Z,12.75
2023-01-02T04:55:06.379Z,12.74
2023-01-02T04:56:06.373Z,12.78
2023-01-02T04:57:06.325Z,12.79
2023-01-02T04:58:06.298Z,12.82
2023-01-02T04:59:06.328Z,12.85
2023-01-02T05:00:06.454Z,12.92
2023-01-02T05:01:06.307Z,12.92
2023-01-02T05:02:06.382Z,12.89
2023-01-02T05:03:06.250Z,12.89
2023-01-02T05:04:07.179Z,12.89
2023-01-02T05:05:06.232Z,12.93
2023-01-02T05:06:06.205Z,12.96
2023-01-02T05:07:06.224Z,12.97
2023-01-02T05:08:10.605Z,12.99
2023-01-02T05:09:07.153Z,13.00
2023-01-02T05:10:06.247Z,13.00
2023-01-02T05:11:06.186Z,13.03
2023-01-02T05:12:06.113Z,13.07
2023-01-02T05:13:06.229Z,13.06
2023-01-02T05:14:08.029Z,13.09
2023-01-02T05:15:06.234Z,13.14
2023-01-02T05:16:06.076Z,13.15
2023-01-02T05:17:06.060Z,13.22
2023-01-02T05:18:06.049Z,13.22
2023-01-02T05:19:06.008Z,13.22
2023-01-02T05:20:06.012Z,13.20
2023-01-02T05:21:06.093Z,13.21
2023-01-02T05:22:06.966Z,13.22
2023-01-02T05:23:05.996Z,13.21
2023-01-02T05:24:06.164Z,13.21
2023-01-02T05:25:05.968Z,13.20
2023-01-02T05:26:05.928Z,13.20
2023-01-02T05:27:06.002Z,13.20
2023-01-02T05:28:05.920Z,13.21
2023-01-02T05:29:05.927Z,13.22
2023-01-02T05:30:05.898Z,13.18
2023-01-02T05:31:05.936Z,13.18
2023-01-02T05:32:05.943Z,13.15
2023-01-02T05:33:05.855Z,13.12
2023-01-02T05:34:06.839Z,13.17
2023-01-02T05:35:05.917Z,13.15
2023-01-02T05:36:06.010Z,13.17
2023-01-02T05:37:05.864Z,13.18
2023-01-02T05:38:05.791Z,13.20
2023-01-02T05:39:05.740Z,13.18
2023-01-02T05:40:05.782Z,13.18
2023-01-02T05:41:05.738Z,13.18
2023-01-02T05:42:05.763Z,13.17
2023-01-02T05:43:05.720Z,13.15
2023-01-02T05:44:05.800Z,13.15
2023-01-02T05:45:05.711Z,13.15
2023-01-02T05:46:05.873Z,13.18
2023-01-02T05:47:05.693Z,13.17
2023-01-02T05:48:06.518Z,13.17
2023-01-02T05:49:07.163Z,13.17
2023-01-02T05:50:05.624Z,13.11
2023-01-02T05:51:05.604Z,13.09
2023-01-02T05:52:05.613Z,13.11
2023-01-02T05:53:05.568Z,13.07
2023-01-02T05:54:05.586Z,13.07
2023-01-02T05:55:06.503Z,13.11
2023-01-02T05:56:05.584Z,13.11
2023-01-02T05:57:05.589Z,13.11
2023-01-02T05:58:05.549Z,13.09
2023-01-02T05:59:05.507Z,13.12
2023-01-02T06:00:05.848Z,13.12
2023-01-02T06:01:06.287Z,13.07
2023-01-02T06:02:05.843Z,13.07
2023-01-02T06:03:05.546Z,13.07
2023-01-02T06:04:05.546Z,13.11
2023-01-02T06:05:05.501Z,13.14
2023-01-02T06:06:05.387Z,13.18
2023-01-02T06:07:06.235Z,13.20
2023-01-02T06:08:05.389Z,13.21
2023-01-02T06:09:05.415Z,13.18
2023-01-02T06:10:05.563Z,13.20
2023-01-02T06:11:05.382Z,13.22
2023-01-02T06:12:05.378Z,13.22
2023-01-02T06:13:05.331Z,13.18
2023-01-02T06:14:05.420Z,13.17
2023-01-02T06:15:05.455Z,13.15
2023-01-02T06:16:05.388Z,13.14
2023-01-02T06:17:05.860Z,13.14
2023-01-02T06:18:05.424Z,13.11
2023-01-02T06:19:05.252Z,13.11
2023-01-02T06:20:05.261Z,13.07
2023-01-02T06:21:05.209Z,13.03
2023-01-02T06:22:05.211Z,13.06
2023-01-02T06:23:05.213Z,13.04
2023-01-02T06:24:05.922Z,13.06
2023-01-02T06:25:05.189Z,13.06
2023-01-02T06:26:05.163Z,13.12
2023-01-02T06:27:06.356Z,13.20
2023-01-02T06:28:05.110Z,13.21
2023-01-02T06:29:05.113Z,13.20
2023-01-02T06:30:05.115Z,13.21
2023-01-02T06:31:05.297Z,13.27
2023-01-02T06:32:05.488Z,13.29
2023-01-02T06:33:05.288Z,13.29
2023-01-02T06:34:06.014Z,13.25
2023-01-02T06:35:05.135Z,13.27
2023-01-02T06:36:05.173Z,13.27
2023-01-02T06:37:09.734Z,13.24
2023-01-02T06:38:06.838Z,13.29
2023-01-02T06:39:04.989Z,13.25
2023-01-02T06:40:04.957Z,13.24
2023-01-02T06:41:04.941Z,13.22
2023-01-02T06:42:04.961Z,13.20
2023-01-02T06:43:04.949Z,13.15
2023-01-02T06:44:04.944Z,13.14
2023-01-02T06:45:05.038Z,13.09
2023-01-02T06:46:05.001Z,13.03
2023-01-02T06:47:04.885Z,12.97
2023-01-02T06:48:04.890Z,12.97
2023-01-02T06:49:04.883Z,12.96
2023-01-02T06:50:04.882Z,12.95
2023-01-02T06:51:04.894Z,12.92
2023-01-02T06:52:05.188Z,12.92
2023-01-02T06:53:04.888Z,12.89
2023-01-02T06:54:04.790Z,12.93
2023-01-02T06:55:04.757Z,12.89
2023-01-02T06:56:04.741Z,12.88
2023-01-02T06:57:04.743Z,12.88
2023-01-02T06:58:10.002Z,12.88
2023-01-02T06:59:06.870Z,12.89
2023-01-02T07:00:04.693Z,12.92
2023-01-02T07:01:05.123Z,12.89
2023-01-02T07:02:04.832Z,12.89
2023-01-02T07:03:04.715Z,12.93
2023-01-02T07:04:04.662Z,12.92
2023-01-02T07:05:05.783Z,12.88
2023-01-02T07:06:04.936Z,12.88
2023-01-02T07:07:04.614Z,12.89
2023-01-02T07:08:04.615Z,12.93
2023-01-02T07:09:04.596Z,12.93
2023-01-02T07:10:05.824Z,12.89
2023-01-02T07:11:04.670Z,12.88
2023-01-02T07:12:04.555Z,12.88
2023-01-02T07:13:04.566Z,12.92
2023-01-02T07:14:04.534Z,12.93
2023-01-02T07:15:04.536Z,12.93
2023-01-02T07:16:04.606Z,12.95
2023-01-02T07:17:04.593Z,12.96
2023-01-02T07:18:04.526Z,12.97
2023-01-02T07:19:04.479Z,13.02
2023-01-02T07:20:04.520Z,13.03
2023-01-02T07:21:04.588Z,13.03
2023-01-02T07:22:04.455Z,13.06
2023-01-02T07:23:05.596Z,13.07
2023-01-02T07:24:05.499Z,13.07
2023-01-02T07:25:04.537Z,13.07
2023-01-02T07:26:04.383Z,13.11
2023-01-02T07:27:04.339Z,13.14
2023-01-02T07:28:04.323Z,13.14
2023-01-02T07:29:04.367Z,13.15
2023-01-02T07:30:04.327Z,13.17
2023-01-02T07:31:04.420Z,13.25
2023-01-02T07:32:04.335Z,13.25
2023-01-02T07:33:04.263Z,13.27
2023-01-02T07:34:05.062Z,13.32
2023-01-02T07:35:04.244Z,13.32
2023-01-02T07:36:04.240Z,13.36
2023-01-02T07:37:04.251Z,13.33
2023-01-02T07:38:04.211Z,13.33
2023-01-02T07:39:04.205Z,13.30
2023-01-02T07:40:04.201Z,13.27
2023-01-02T07:41:04.185Z,13.32
2023-01-02T07:42:04.289Z,13.32
2023-01-02T07:43:04.230Z,13.29
2023-01-02T07:44:04.388Z,13.27
2023-01-02T07:45:04.113Z,13.24
2023-01-02T07:46:04.147Z,13.24
2023-01-02T07:47:04.106Z,13.25
2023-01-02T07:48:04.131Z,13.24
2023-01-02T07:49:04.079Z,13.24
2023-01-02T07:50:04.051Z,13.27
2023-01-02T07:51:04.028Z,13.33
2023-01-02T07:52:04.042Z,13.37
2023-01-02T07:53:04.072Z,13.36
2023-01-02T07:54:04.822Z,13.33
2023-01-02T07:55:03.983Z,13.33
2023-01-02T07:56:04.804Z,13.33
2023-01-02T07:57:04.038Z,13.43
2023-01-02T07:58:03.988Z,13.47
2023-01-02T07:59:03.993Z,13.47
2023-01-02T08:00:03.945Z,13.47
2023-01-02T08:01:05.862Z,13.51
2023-01-02T08:02:04.056Z,13.49
2023-01-02T08:03:03.879Z,13.52
2023-01-02T08:04:04.740Z,13.51
2023-01-02T08:05:03.937Z,13.52
2023-01-02T08:06:03.864Z,13.52
2023-01-02T08:07:04.505Z,13.56
2023-01-02T08:08:03.930Z,13.56
2023-01-02T08:09:03.834Z,13.62
2023-01-02T08:10:03.884Z,13.69
2023-01-02T08:11:03.787Z,13.70
2023-01-02T08:12:03.803Z,13.70
2023-01-02T08:13:03.797Z,13.76
2023-01-02T08:14:03.746Z,13.81
2023-01-02T08:15:03.734Z,13.80
2023-01-02T08:16:03.692Z,13.83
2023-01-02T08:17:03.764Z,13.94
2023-01-02T08:18:03.705Z,13.95
2023-01-02T08:19:03.671Z,13.95
2023-01-02T08:20:08.078Z,13.95
2023-01-02T08:21:03.694Z,13.94
2023-01-02T08:22:03.653Z,13.95
2023-01-02T08:23:03.627Z,13.99
2023-01-02T08:24:04.841Z,14.06
2023-01-02T08:25:03.607Z,14.10
2023-01-02T08:26:03.633Z,14.13
2023-01-02T08:27:03.599Z,14.12
2023-01-02T08:28:03.578Z,14.10
2023-01-02T08:29:03.558Z,14.09
2023-01-02T08:30:03.541Z,14.09
2023-01-02T08:31:03.556Z,14.07
2023-01-02T08:32:04.597Z,14.04
2023-01-02T08:33:03.867Z,14.04
2023-01-02T08:34:03.506Z,14.06
2023-01-02T08:35:03.527Z,14.06
2023-01-02T08:36:03.459Z,14.10
2023-01-02T08:37:03.478Z,14.09
2023-01-02T08:38:03.422Z,14.07
2023-01-02T08:39:03.410Z,14.07
2023-01-02T08:40:03.441Z,14.06
2023-01-02T08:41:03.387Z,14.07
2023-01-02T08:42:03.379Z,14.07
2023-01-02T08:43:03.352Z,14.07
2023-01-02T08:44:04.058Z,14.06
2023-01-02T08:45:03.334Z,14.04
2023-01-02T08:46:04.350Z,14.06
2023-01-02T08:47:03.377Z,14.09
2023-01-02T08:48:20.282Z,14.09
2023-01-02T08:49:04.357Z,14.13
2023-01-02T08:50:03.259Z,14.16
2023-01-02T08:51:03.271Z,14.17
2023-01-02T08:52:03.228Z,14.17
2023-01-02T08:53:04.724Z,14.19
2023-01-02T08:54:03.240Z,14.17
2023-01-02T08:55:03.253Z,14.16
2023-01-02T08:56:03.390Z,14.16
2023-01-02T08:57:03.179Z,14.12
2023-01-02T08:58:03.180Z,14.12
2023-01-02T08:59:03.139Z,14.13
2023-01-02T09:00:03.127Z,14.17
2023-01-02T09:01:03.538Z,14.14
2023-01-02T09:02:03.204Z,14.12
2023-01-02T09:03:03.226Z,14.13
2023-01-02T09:04:11.193Z,14.13
2023-01-02T09:05:04.083Z,14.12
2023-01-02T09:06:03.063Z,14.13
2023-01-02T09:07:03.164Z,14.12
2023-01-02T09:08:03.059Z,14.09
2023-01-02T09:09:09.223Z,14.09
2023-01-02T09:10:04.041Z,14.10
2023-01-02T09:11:03.005Z,14.14
2023-01-02T09:12:02.973Z,14.14
2023-01-02T09:13:03.039Z,14.19
2023-01-02T09:14:03.015Z,14.24
2023-01-02T09:15:03.045Z,14.27
2023-01-02T09:16:03.078Z,14.31
2023-01-02T09:17:02.939Z,14.35
2023-01-02T09:18:02.873Z,14.38
2023-01-02T09:19:02.879Z,14.39
2023-01-02T09:20:02.865Z,14.47
2023-01-02T09:21:02.833Z,14.49
2023-01-02T09:22:02.847Z,14.49
2023-01-02T09:23:02.835Z,14.49
2023-01-02T09:24:02.915Z,14.49
2023-01-02T09:25:02.815Z,14.47
2023-01-02T09:26:02.817Z,14.50
2023-01-02T09:27:02.799Z,14.46
2023-01-02T09:28:02.823Z,14.46
2023-01-02T09:29:02.798Z,14.49
2023-01-02T09:30:02.723Z,14.49
2023-01-02T09:31:06.066Z,14.47
2023-01-02T09:32:03.725Z,14.47
2023-01-02T09:33:02.721Z,14.49
2023-01-02T09:34:02.709Z,14.50
2023-01-02T09:35:02.646Z,14.49
2023-01-02T09:36:02.665Z,14.47
2023-01-02T09:37:02.673Z,14.46
2023-01-02T09:38:02.682Z,14.49
2023-01-02T09:39:02.631Z,14.53
2023-01-02T09:40:02.583Z,14.53
2023-01-02T09:41:02.612Z,14.53
2023-01-02T09:42:02.593Z,14.56
2023-01-02T09:43:02.551Z,14.54
2023-01-02T09:44:03.315Z,14.54
2023-01-02T09:45:08.159Z,14.52
2023-01-02T09:46:03.630Z,14.50
2023-01-02T09:47:02.568Z,14.54
2023-01-02T09:48:02.511Z,14.57
2023-01-02T09:49:03.414Z,14.61
2023-01-02T09:50:02.652Z,14.65
2023-01-02T09:51:07.290Z,14.65
2023-01-02T09:52:03.460Z,14.65
2023-01-02T09:53:02.444Z,14.67
2023-01-02T09:54:02.494Z,14.68
2023-01-02T09:55:02.410Z,14.71
2023-01-02T09:56:02.402Z,14.72
2023-01-02T09:57:02.379Z,14.78
2023-01-02T09:58:02.375Z,14.81
2023-01-02T09:59:02.359Z,14.81
2023-01-02T10:00:02.349Z,14.81
2023-01-02T10:01:02.563Z,14.81
2023-01-02T10:02:02.313Z,14.81
2023-01-02T10:03:07.609Z,14.81
2023-01-02T10:04:03.416Z,14.87
2023-01-02T10:05:02.239Z,14.91
2023-01-02T10:06:02.326Z,14.94
2023-01-02T10:07:02.212Z,14.99
2023-01-02T10:08:02.288Z,15.03
2023-01-02T10:09:02.226Z,15.12
2023-01-02T10:10:02.184Z,15.17
2023-01-02T10:11:02.212Z,15.21
2023-01-02T10:12:02.204Z,15.23
2023-01-02T10:13:02.171Z,15.27
2023-01-02T10:14:20.190Z,15.24
2023-01-02T10:15:03.464Z,15.30
2023-01-02T10:16:02.150Z,15.35
2023-01-02T10:17:02.197Z,15.38
2023-01-02T10:18:02.157Z,15.41
2023-01-02T10:19:02.224Z,15.41
2023-01-02T10:20:02.119Z,15.41
2023-01-02T10:21:02.078Z,15.43
2023-01-02T10:22:02.045Z,15.41
2023-01-02T10:23:02.043Z,15.41
2023-01-02T10:24:03.085Z,15.41
2023-01-02T10:25:01.995Z,15.38
2023-01-02T10:26:02.001Z,15.41
2023-01-02T10:27:02.022Z,15.39
2023-01-02T10:28:02.049Z,15.38
2023-01-02T10:29:01.987Z,15.39
2023-01-02T10:30:01.915Z,15.36
2023-01-02T10:31:07.031Z,15.38
2023-01-02T10:32:02.920Z,15.38
2023-01-02T10:33:01.871Z,15.36
2023-01-02T10:34:01.973Z,15.36
2023-01-02T10:35:01.936Z,15.41
2023-01-02T10:36:01.858Z,15.38
2023-01-02T10:37:07.771Z,15.39
2023-01-02T10:38:02.805Z,15.38
2023-01-02T10:39:02.672Z,15.42
2023-01-02T10:40:02.543Z,15.41
2023-01-02T10:41:03.255Z,15.39
2023-01-02T10:42:02.203Z,15.36
2023-01-02T10:43:01.740Z,15.33
2023-01-02T10:44:02.152Z,15.30
2023-01-02T10:45:01.749Z,15.26
2023-01-02T10:46:01.714Z,15.21
2023-01-02T10:47:01.719Z,15.13
2023-01-02T10:48:01.734Z,15.15
2023-01-02T10:49:01.684Z,15.15
2023-01-02T10:50:02.163Z,15.15
2023-01-02T10:51:01.666Z,15.12
2023-01-02T10:52:02.415Z,15.15
2023-01-02T10:53:01.616Z,15.17
2023-01-02T10:54:02.557Z,15.12
2023-01-02T10:55:01.671Z,15.11
2023-01-02T10:56:01.623Z,15.05
2023-01-02T10:57:01.606Z,15.02
2023-01-02T10:58:01.553Z,14.98
2023-01-02T10:59:01.531Z,14.98
2023-01-02T11:00:01.567Z,14.95
2023-01-02T11:01:01.535Z,14.91
2023-01-02T11:02:01.602Z,14.87
2023-01-02T11:03:01.539Z,14.81
2023-01-02T11:04:01.523Z,14.78
2023-01-02T11:05:01.524Z,14.69
2023-01-02T11:06:26.881Z,14.65
2023-01-02T11:07:02.504Z,14.56
2023-01-02T11:08:01.494Z,14.42
2023-01-02T11:09:01.401Z,14.27
2023-01-02T11:10:01.393Z,14.16
2023-01-02T11:11:01.389Z,14.07
2023-01-02T11:12:01.384Z,13.99
2023-01-02T11:13:01.367Z,13.95
2023-01-02T11:14:02.352Z,13.89
2023-01-02T11:15:01.675Z,13.77
2023-01-02T11:16:01.428Z,13.63
2023-01-02T11:17:01.311Z,13.51
2023-01-02T11:18:01.346Z,13.37
2023-01-02T11:19:01.276Z,13.24
2023-01-02T11:20:01.271Z,13.14
2023-01-02T11:21:01.263Z,13.04
2023-01-02T11:22:01.223Z,12.95
2023-01-02T11:23:01.219Z,12.88
2023-01-02T11:24:01.278Z,12.81
2023-01-02T11:25:01.562Z,12.75
2023-01-02T11:26:01.238Z,12.71
2023-01-02T11:27:01.175Z,12.70
2023-01-02T11:28:01.176Z,12.66
2023-01-02T11:29:01.140Z,12.62
2023-01-02T11:30:01.162Z,12.63
2023-01-02T11:31:01.343Z,12.59
2023-01-02T11:32:01.319Z,12.56
2023-01-02T11:33:01.088Z,12.54
2023-01-02T11:34:01.149Z,12.54
2023-01-02T11:35:25.916Z,12.52
2023-01-02T11:36:01.221Z,12.52
2023-01-02T11:37:01.819Z,12.52
2023-01-02T11:38:01.036Z,12.54
2023-01-02T11:39:01.004Z,12.62
2023-01-02T11:40:00.988Z,12.66
2023-01-02T11:41:01.141Z,12.64
2023-01-02T11:42:01.022Z,12.67
2023-01-02T11:43:01.039Z,12.67
2023-01-02T11:44:01.010Z,12.67
2023-01-02T11:45:01.043Z,12.67
2023-01-02T11:46:00.950Z,12.70
2023-01-02T11:47:01.007Z,12.70
2023-01-02T11:48:00.888Z,12.71
2023-01-02T11:49:00.951Z,12.71
2023-01-02T11:50:00.868Z,12.74
2023-01-02T11:51:00.857Z,12.74
2023-01-02T11:52:00.912Z,12.74
2023-01-02T11:53:00.820Z,12.79
2023-01-02T11:54:00.847Z,12.79
2023-01-02T11:55:00.838Z,12.81
2023-01-02T11:56:00.803Z,12.81
2023-01-02T11:57:00.888Z,12.79
2023-01-02T11:58:00.899Z,12.79
2023-01-02T11:59:00.782Z,12.78
2023-01-02T12:00:00.768Z,12.77
2023-01-02T12:01:00.777Z,12.77
2023-01-02T12:02:00.863Z,12.77
2023-01-02T12:03:00.804Z,12.77
2023-01-02T12:04:00.714Z,12.78
2023-01-02T12:05:00.672Z,12.79
2023-01-02T12:06:00.633Z,12.81
2023-01-02T12:07:00.704Z,12.82
2023-01-02T12:08:00.629Z,12.82
2023-01-02T12:09:01.683Z,12.89
2023-01-02T12:10:00.610Z,12.92
2023-01-02T12:11:00.609Z,12.88
2023-01-02T12:12:00.666Z,12.85
2023-01-02T12:13:00.576Z,12.79
2023-01-02T12:14:00.571Z,12.75
2023-01-02T12:15:00.555Z,12.71
2023-01-02T12:16:00.541Z,12.69
2023-01-02T12:17:00.515Z,12.66
2023-01-02T12:18:00.540Z,12.54
2023-01-02T12:19:00.497Z,12.46
2023-01-02T12:20:05.077Z,12.33
2023-01-02T12:21:01.491Z,12.30
2023-01-02T12:22:00.444Z,12.19
2023-01-02T12:23:01.359Z,12.12
2023-01-02T12:24:00.466Z,12.09
2023-01-02T12:25:00.403Z,12.05
2023-01-02T12:26:05.575Z,12.04
2023-01-02T12:27:01.423Z,11.99
2023-01-02T12:28:00.399Z,11.96
2023-01-02T12:29:01.153Z,11.96
2023-01-02T12:30:00.325Z,11.96
2023-01-02T12:31:00.328Z,11.96
2023-01-02T12:32:06.219Z,11.96
2023-01-02T12:33:01.301Z,11.96
2023-01-02T12:34:00.323Z,12.01
2023-01-02T12:35:01.223Z,12.02
2023-01-02T12:36:00.590Z,12.05
2023-01-02T12:37:00.278Z,12.09
2023-01-02T12:38:00.222Z,12.13
2023-01-02T12:39:00.207Z,12.15
2023-01-02T12:40:00.231Z,12.20
2023-01-02T12:41:01.162Z,12.24
2023-01-02T12:42:01.449Z,12.27
2023-01-02T12:43:00.146Z,12.30
2023-01-02T12:44:00.165Z,12.31
2023-01-02T12:45:00.171Z,12.37
2023-01-02T12:46:00.294Z,12.39
2023-01-02T12:47:00.102Z,12.39
2023-01-02T12:48:00.117Z,12.42
2023-01-02T12:49:00.110Z,12.42
2023-01-02T12:50:00.086Z,12.42
2023-01-02T12:51:00.100Z,12.42
2023-01-02T12:52:00.109Z,12.42